HL8080 RJGG-RKSS
Flight info
| Callsign | HL8080 |
|---|---|
| Flight time | N/A |
| Altitude | 38000 |
| Route | YME Y18 MIHOU Y38 SAPRA G585 GUKDO |
| Aircraft | A319/M-SDE3FGHIRWY/LB1 |
Departure
| Time | N/A |
|---|---|
| Airport | Chubu Centrair International Airport (RJGG) |
Arrival
| Time | 2026-05-01 13:24 |
|---|---|
| Airport | Gimpo International Airport (RKSS) |
| Time | Latitude | Longitude | Altitude | Speed | Heading |
|---|---|---|---|---|---|
| 2026-05-01 12:53 | 36.21119 | 129.06851 | 37896 ft | 315 kts | 303° |
| 2026-05-01 12:54 | 36.22389 | 129.04630 | 37896 ft | 315 kts | 303° |
| 2026-05-01 12:54 | 36.26197 | 128.97967 | 37908 ft | 316 kts | 303° |
| 2026-05-01 12:55 | 36.30003 | 128.91294 | 37912 ft | 316 kts | 303° |
| 2026-05-01 12:56 | 36.32545 | 128.86823 | 37668 ft | 318 kts | 303° |
| 2026-05-01 12:56 | 36.33821 | 128.84577 | 37390 ft | 319 kts | 303° |
| 2026-05-01 12:56 | 36.35106 | 128.82318 | 37137 ft | 320 kts | 303° |
| 2026-05-01 12:56 | 36.36392 | 128.80058 | 36877 ft | 321 kts | 303° |
| 2026-05-01 12:57 | 36.37669 | 128.77815 | 36616 ft | 323 kts | 303° |
| 2026-05-01 12:57 | 36.40264 | 128.73235 | 36105 ft | 326 kts | 303° |
| 2026-05-01 12:57 | 36.41569 | 128.70926 | 35857 ft | 327 kts | 303° |
| 2026-05-01 12:58 | 36.42874 | 128.68620 | 35616 ft | 326 kts | 303° |
| 2026-05-01 12:58 | 36.44180 | 128.66317 | 35370 ft | 326 kts | 302° |
| 2026-05-01 12:58 | 36.45485 | 128.64019 | 35128 ft | 325 kts | 302° |
| 2026-05-01 12:59 | 36.48090 | 128.59425 | 34652 ft | 324 kts | 302° |
| 2026-05-01 12:59 | 36.49383 | 128.57134 | 34420 ft | 323 kts | 302° |
| 2026-05-01 12:59 | 36.51954 | 128.52569 | 33951 ft | 322 kts | 302° |
| 2026-05-01 13:00 | 36.54518 | 128.48020 | 33458 ft | 320 kts | 302° |
| 2026-05-01 13:00 | 36.55792 | 128.45759 | 33191 ft | 318 kts | 302° |
| 2026-05-01 13:01 | 36.58330 | 128.41252 | 32678 ft | 317 kts | 303° |
| 2026-05-01 13:01 | 36.59592 | 128.39007 | 32419 ft | 317 kts | 303° |
| 2026-05-01 13:01 | 36.62114 | 128.34503 | 31410 ft | 321 kts | 303° |
| 2026-05-01 13:02 | 36.63403 | 128.32191 | 30585 ft | 329 kts | 304° |
| 2026-05-01 13:07 | 36.90806 | 127.83842 | 16735 ft | 295 kts | 306° |
| 2026-05-01 13:07 | 36.91958 | 127.81781 | 16342 ft | 286 kts | 306° |
| 2026-05-01 13:07 | 36.93157 | 127.79819 | 15887 ft | 281 kts | 310° |
| 2026-05-01 13:08 | 36.94393 | 127.77943 | 15368 ft | 278 kts | 311° |
| 2026-05-01 13:08 | 36.95615 | 127.76087 | 14852 ft | 276 kts | 311° |
| 2026-05-01 13:08 | 36.96824 | 127.74239 | 14334 ft | 274 kts | 311° |
| 2026-05-01 13:08 | 36.98021 | 127.72400 | 13822 ft | 272 kts | 311° |
| 2026-05-01 13:09 | 36.99206 | 127.70572 | 13239 ft | 271 kts | 310° |
| 2026-05-01 13:09 | 37.00402 | 127.68750 | 12644 ft | 270 kts | 311° |
| 2026-05-01 13:09 | 37.01599 | 127.66935 | 12074 ft | 269 kts | 311° |
| 2026-05-01 13:09 | 37.02785 | 127.65139 | 11518 ft | 268 kts | 310° |
| 2026-05-01 13:10 | 37.03967 | 127.63342 | 11006 ft | 266 kts | 311° |
| 2026-05-01 13:10 | 37.05139 | 127.61562 | 10469 ft | 264 kts | 311° |
| 2026-05-01 13:10 | 37.06303 | 127.59807 | 9974 ft | 261 kts | 311° |
| 2026-05-01 13:10 | 37.07468 | 127.58063 | 9466 ft | 261 kts | 311° |
| 2026-05-01 13:11 | 37.08623 | 127.56346 | 9118 ft | 260 kts | 311° |
| 2026-05-01 13:11 | 37.09787 | 127.54619 | 9009 ft | 259 kts | 311° |
| 2026-05-01 13:11 | 37.10953 | 127.52889 | 9012 ft | 260 kts | 311° |
| 2026-05-01 13:11 | 37.12122 | 127.51154 | 9014 ft | 261 kts | 310° |
| 2026-05-01 13:12 | 37.13294 | 127.49423 | 9010 ft | 261 kts | 311° |
| 2026-05-01 13:12 | 37.14465 | 127.47691 | 9011 ft | 261 kts | 311° |
| 2026-05-01 13:12 | 37.15637 | 127.45956 | 9008 ft | 261 kts | 311° |
| 2026-05-01 13:12 | 37.16814 | 127.44222 | 9010 ft | 261 kts | 311° |
| 2026-05-01 13:13 | 37.17990 | 127.42494 | 9015 ft | 261 kts | 311° |
| 2026-05-01 13:13 | 37.19170 | 127.40765 | 9018 ft | 261 kts | 311° |
| 2026-05-01 13:13 | 37.20349 | 127.39031 | 9019 ft | 261 kts | 311° |
| 2026-05-01 13:13 | 37.21526 | 127.37298 | 9013 ft | 261 kts | 311° |
| 2026-05-01 13:14 | 37.22699 | 127.35564 | 9012 ft | 261 kts | 309° |
| 2026-05-01 13:14 | 37.23578 | 127.33578 | 8891 ft | 261 kts | 293° |
| 2026-05-01 13:14 | 37.24185 | 127.31434 | 8496 ft | 261 kts | 291° |
| 2026-05-01 13:14 | 37.24768 | 127.29280 | 8122 ft | 259 kts | 291° |
| 2026-05-01 13:15 | 37.25345 | 127.27142 | 7760 ft | 258 kts | 291° |
| 2026-05-01 13:15 | 37.25924 | 127.25012 | 7405 ft | 257 kts | 291° |
| 2026-05-01 13:15 | 37.26501 | 127.22896 | 7081 ft | 255 kts | 290° |
| 2026-05-01 13:15 | 37.27082 | 127.20796 | 7013 ft | 254 kts | 291° |
| 2026-05-01 13:16 | 37.27659 | 127.18709 | 6824 ft | 253 kts | 291° |
| 2026-05-01 13:16 | 37.28241 | 127.16623 | 6426 ft | 252 kts | 291° |
| 2026-05-01 13:16 | 37.28820 | 127.14553 | 6032 ft | 251 kts | 291° |
| 2026-05-01 13:17 | 37.32080 | 127.09527 | 4813 ft | 250 kts | 312° |
| 2026-05-01 13:17 | 37.33283 | 127.07946 | 4428 ft | 249 kts | 312° |
| 2026-05-01 13:18 | 37.35670 | 127.04802 | 4682 ft | 251 kts | 312° |
| 2026-05-01 13:18 | 37.36870 | 127.03201 | 4917 ft | 252 kts | 310° |
| 2026-05-01 13:18 | 37.37901 | 127.01445 | 4913 ft | 246 kts | 306° |
| 2026-05-01 13:18 | 37.39037 | 126.99802 | 4382 ft | 251 kts | 313° |
| 2026-05-01 13:19 | 37.40273 | 126.98259 | 4011 ft | 247 kts | 314° |
| 2026-05-01 13:19 | 37.41472 | 126.96779 | 3683 ft | 235 kts | 314° |
| 2026-05-01 13:19 | 37.43677 | 126.94029 | 3102 ft | 215 kts | 314° |
| 2026-05-01 13:20 | 37.44727 | 126.92718 | 2822 ft | 207 kts | 314° |
| 2026-05-01 13:20 | 37.45721 | 126.91474 | 2562 ft | 200 kts | 314° |
| 2026-05-01 13:20 | 37.46667 | 126.90293 | 2310 ft | 184 kts | 313° |
| 2026-05-01 13:21 | 37.48297 | 126.88256 | 1859 ft | 143 kts | 313° |
| 2026-05-01 13:21 | 37.48960 | 126.87426 | 1684 ft | 129 kts | 313° |
| 2026-05-01 13:21 | 37.49582 | 126.86646 | 1506 ft | 124 kts | 313° |
| 2026-05-01 13:21 | 37.50195 | 126.85877 | 1340 ft | 123 kts | 313° |
| 2026-05-01 13:22 | 37.50803 | 126.85116 | 1175 ft | 124 kts | 313° |
| 2026-05-01 13:22 | 37.51420 | 126.84343 | 1011 ft | 126 kts | 312° |
| 2026-05-01 13:22 | 37.52046 | 126.83554 | 835 ft | 129 kts | 312° |
| 2026-05-01 13:22 | 37.52695 | 126.82739 | 670 ft | 133 kts | 313° |
| 2026-05-01 13:23 | 37.53359 | 126.81910 | 488 ft | 134 kts | 313° |
| 2026-05-01 13:23 | 37.54012 | 126.81090 | 313 ft | 134 kts | 312° |
| 2026-05-01 13:23 | 37.54679 | 126.80263 | 142 ft | 134 kts | 313° |
| 2026-05-01 13:23 | 37.55319 | 126.79467 | 57 ft | 113 kts | 314° |
| 2026-05-01 13:24 | 37.55743 | 126.78918 | 58 ft | 62 kts | 316° |
| 2026-05-01 13:24 | 37.55948 | 126.78661 | 59 ft | 32 kts | 315° |
| 2026-05-01 13:24 | 37.56099 | 126.78475 | 58 ft | 26 kts | 322° |
| 2026-05-01 13:25 | 37.56398 | 126.78331 | 63 ft | 19 kts | 0° |
| 2026-05-01 13:25 | 37.56519 | 126.78393 | 65 ft | 20 kts | 41° |
| 2026-05-01 13:25 | 37.56619 | 126.78519 | 61 ft | 19 kts | 46° |
| 2026-05-01 13:25 | 37.56657 | 126.78642 | 67 ft | 16 kts | 122° |
| 2026-05-01 13:26 | 37.56577 | 126.78746 | 65 ft | 17 kts | 136° |
| 2026-05-01 13:26 | 37.56490 | 126.78854 | 64 ft | 18 kts | 135° |
| 2026-05-01 13:26 | 37.56399 | 126.78966 | 65 ft | 19 kts | 135° |
| 2026-05-01 13:26 | 37.56318 | 126.79067 | 65 ft | 12 kts | 136° |
| 2026-05-01 13:27 | 37.56302 | 126.79159 | 67 ft | 12 kts | 57° |
| 2026-05-01 13:27 | 37.56368 | 126.79240 | 60 ft | 14 kts | 45° |
| 2026-05-01 13:27 | 37.56521 | 126.79436 | 63 ft | 17 kts | 45° |
| 2026-05-01 13:28 | 37.56706 | 126.79666 | 60 ft | 20 kts | 44° |
| 2026-05-01 13:28 | 37.56810 | 126.79781 | 63 ft | 15 kts | 13° |
| 2026-05-01 13:29 | 37.56871 | 126.79709 | 67 ft | 0 kts | 315° |